Austin/Bergstrom AFB, Texas
Current Conditions -  °F | °C
As of 11:53 AM on Monday 26 Jan 2015 (Local Time) from KAUS Reporting Station
Broken Clouds Broken Clouds  
Wind Chill: 65°   Ceiling: 25000
Heat Index: 65°   Visibility: 10mi
Dew Point: 38°   Wind: 6mph
Humidity: 37%   Direction: 330°NNW
Pressure: 30.25"   Gusts: NA
Location:  30.2°N, 97.68°W
Report Text: KAUS 261753Z 33005KT 10SM SCT200 BKN250 18/03 A3025 RMK AO2 SLP244 T01830033 10183 20011 58008
Loading
Personal Weather Stations






























Interactive Weather Map New forecast layout! Learn more

10-Day Weather Forecast

Advertisements
Track Severe Weather on mobile